createdAt,value
2023-01-23T00:04:47.387Z,2.0
2023-01-23T00:31:23.184Z,2.2
2023-01-23T00:36:30.293Z,2.2
2023-01-23T00:41:40.378Z,2.2
2023-01-23T00:46:46.696Z,2.1
2023-01-23T00:51:53.021Z,2.1
2023-01-23T00:56:59.519Z,2.1
2023-01-23T01:02:05.813Z,2.0
2023-01-23T01:07:12.264Z,2.0
2023-01-23T01:12:18.768Z,2.0
2023-01-23T01:17:25.041Z,2.0
2023-01-23T01:22:31.528Z,2.0
2023-01-23T01:28:02.095Z,2.0
2023-01-23T01:32:44.337Z,2.0
2023-01-23T01:37:50.728Z,2.0
2023-01-23T01:43:21.300Z,2.0
2023-01-23T01:48:02.580Z,2.0
2023-01-23T01:52:59.917Z,2.0
2023-01-23T01:58:16.314Z,2.0
2023-01-23T02:03:22.895Z,1.9
2023-01-23T02:10:44.417Z,2.0
2023-01-23T02:15:27.913Z,2.0
2023-01-23T02:22:26.584Z,2.0
2023-01-23T02:27:33.841Z,2.0
2023-01-23T02:32:40.215Z,2.0
2023-01-23T02:37:46.738Z,2.0
2023-01-23T02:43:17.056Z,2.0
2023-01-23T02:54:38.138Z,2.0
2023-01-23T02:59:28.332Z,2.0
2023-01-23T03:04:31.703Z,2.0
2023-01-23T03:09:38.760Z,2.0
2023-01-23T03:14:45.259Z,2.0
2023-01-23T03:19:51.512Z,2.0
2023-01-23T03:24:57.893Z,2.0
2023-01-23T03:30:24.440Z,2.0
2023-01-23T03:40:41.213Z,2.0
2023-01-23T03:45:23.549Z,2.0
2023-01-23T04:01:58.221Z,2.1
2023-01-23T04:06:40.566Z,2.2
2023-01-23T04:16:53.332Z,2.2
2023-01-23T04:21:59.727Z,2.2
2023-01-23T04:27:20.260Z,2.2
2023-01-23T04:32:12.492Z,2.1
2023-01-23T04:37:32.894Z,2.1
2023-01-23T04:42:45.473Z,2.1
2023-01-23T04:47:31.733Z,2.1
2023-01-23T05:02:51.040Z,2.1
2023-01-23T05:13:03.702Z,2.2
2023-01-23T05:18:10.295Z,2.2
2023-01-23T05:23:16.555Z,2.2
2023-01-23T05:28:12.915Z,2.2
2023-01-23T05:33:29.497Z,2.2
2023-01-23T05:38:35.752Z,2.2
2023-01-23T05:43:41.196Z,2.2
2023-01-23T05:48:48.704Z,2.2
2023-01-23T05:53:44.505Z,2.2
2023-01-23T05:59:25.947Z,2.2
2023-01-23T06:04:12.319Z,2.2
2023-01-23T06:09:15.237Z,2.2
2023-01-23T06:14:11.717Z,2.3
2023-01-23T06:19:28.218Z,2.2
2023-01-23T06:29:40.876Z,2.3
2023-01-23T06:34:47.371Z,2.3
2023-01-23T06:44:49.986Z,2.3
2023-01-23T06:50:30.598Z,2.3
2023-01-23T06:55:31.851Z,2.3
2023-01-23T07:00:19.518Z,2.3
2023-01-23T07:05:25.709Z,2.3
2023-01-23T07:10:32.233Z,2.3
2023-01-23T07:15:40.936Z,2.4
2023-01-23T07:20:44.831Z,2.3
2023-01-23T07:36:11.229Z,2.4
2023-01-23T07:41:51.804Z,2.4
2023-01-23T07:46:58.048Z,2.4
2023-01-23T07:51:55.394Z,2.4
2023-01-23T07:57:11.910Z,2.4
2023-01-23T08:07:24.717Z,2.4
2023-01-23T08:12:55.228Z,2.4
2023-01-23T08:17:37.557Z,2.4
2023-01-23T08:27:50.743Z,2.4
2023-01-23T08:34:21.391Z,2.5
2023-01-23T08:38:03.512Z,2.5
2023-01-23T08:48:16.322Z,2.5
2023-01-23T08:53:46.785Z,2.6
2023-01-23T08:58:19.084Z,2.5
2023-01-23T09:03:35.484Z,2.6
2023-01-23T09:08:41.893Z,2.6
2023-01-23T09:13:48.403Z,2.7
2023-01-23T09:23:51.573Z,2.7
2023-01-23T09:29:08.094Z,2.7
2023-01-23T09:34:16.980Z,2.8
2023-01-23T09:39:20.848Z,2.8
2023-01-23T09:49:57.676Z,2.9
2023-01-23T09:54:40.089Z,2.9
2023-01-23T09:59:59.946Z,2.9
2023-01-23T10:04:54.419Z,3.0
2023-01-23T10:10:00.790Z,3.0
2023-01-23T10:15:07.292Z,3.0
2023-01-23T10:20:13.658Z,3.1
2023-01-23T10:25:20.427Z,3.1
2023-01-23T10:30:26.759Z,3.1
2023-01-23T10:35:32.918Z,3.1
2023-01-23T10:40:39.306Z,3.2
2023-01-23T10:45:45.938Z,3.2
2023-01-23T10:50:52.696Z,3.2
2023-01-23T10:55:59.993Z,3.3
2023-01-23T11:01:06.662Z,3.3
2023-01-23T11:06:12.978Z,3.4
2023-01-23T11:22:07.193Z,3.5
2023-01-23T11:27:13.575Z,3.5
2023-01-23T11:32:23.968Z,3.6
2023-01-23T11:37:28.903Z,3.6
2023-01-23T11:42:36.284Z,3.6
2023-01-23T11:47:42.858Z,3.7
2023-01-23T11:52:49.338Z,3.7
2023-01-23T11:57:55.816Z,3.7
2023-01-23T12:03:02.452Z,3.8
2023-01-23T12:13:14.653Z,3.9
2023-01-23T12:18:22.110Z,3.9
2023-01-23T12:23:28.361Z,4.0
2023-01-23T12:28:24.760Z,4.0
2023-01-23T12:34:05.335Z,4.1
2023-01-23T12:38:47.586Z,4.1
2023-01-23T12:43:54.854Z,4.2
2023-01-23T12:49:00.312Z,4.2
2023-01-23T12:54:26.866Z,4.2
2023-01-23T12:59:16.655Z,4.3
2023-01-23T13:04:23.047Z,4.3
2023-01-23T13:09:29.645Z,4.3
2023-01-23T13:14:52.548Z,4.4
2023-01-23T13:19:42.405Z,4.5
2023-01-23T13:26:01.403Z,4.5
2023-01-23T13:29:55.521Z,4.6
2023-01-23T13:35:00.899Z,4.7
2023-01-23T13:40:32.327Z,4.8
2023-01-23T13:45:14.784Z,4.9
2023-01-23T13:50:21.127Z,5.0
2023-01-23T13:55:26.590Z,5.0
2023-01-23T14:00:34.140Z,5.1
2023-01-23T14:05:40.374Z,5.1
2023-01-23T14:10:46.762Z,5.1
2023-01-23T14:15:57.314Z,5.1
2023-01-23T14:21:41.095Z,5.1
2023-01-23T14:26:41.115Z,5.1
2023-01-23T14:31:47.785Z,5.1
2023-01-23T14:37:13.988Z,5.1
2023-01-23T14:42:23.550Z,5.1
2023-01-23T14:47:34.034Z,5.1
2023-01-23T14:52:27.287Z,5.0
2023-01-23T15:04:46.259Z,5.0
2023-01-23T15:07:32.380Z,4.9
2023-01-23T15:12:28.861Z,4.9
2023-01-23T15:17:45.258Z,4.8
2023-01-23T15:22:51.751Z,4.8
2023-01-23T15:27:58.042Z,4.8
2023-01-23T15:33:04.378Z,4.7
2023-01-23T15:38:10.892Z,4.7
2023-01-23T15:43:17.236Z,4.6
2023-01-23T15:48:13.596Z,4.6
2023-01-23T15:53:49.141Z,4.5
2023-01-23T15:58:36.384Z,4.5
2023-01-23T16:03:42.852Z,4.4
2023-01-23T16:08:55.123Z,4.4
2023-01-23T16:13:45.697Z,4.3
2023-01-23T16:19:00.933Z,4.3
2023-01-23T16:24:08.330Z,4.2
2023-01-23T16:29:14.792Z,4.1
2023-01-23T16:34:21.297Z,4.1
2023-01-23T16:39:30.754Z,4.1
2023-01-23T16:44:34.262Z,4.0
2023-01-23T16:49:51.588Z,4.0
2023-01-23T16:54:46.908Z,3.9
2023-01-23T17:00:19.092Z,3.9
2023-01-23T17:10:09.613Z,3.8
2023-01-23T17:15:16.004Z,3.8
2023-01-23T17:20:21.427Z,3.7
2023-01-23T17:25:28.783Z,3.7
2023-01-23T17:31:03.105Z,3.6
2023-01-23T17:35:46.499Z,3.6
2023-01-23T17:40:54.386Z,3.6
2023-01-23T17:46:00.821Z,3.5
2023-01-23T17:51:55.233Z,3.4
2023-01-23T17:57:02.548Z,3.5
2023-01-23T18:01:58.994Z,3.4
2023-01-23T18:07:15.452Z,3.4
2023-01-23T18:12:56.058Z,3.4
2023-01-23T18:18:03.413Z,3.3
2023-01-23T18:33:23.133Z,3.3
2023-01-23T18:44:12.043Z,3.3
2023-01-23T18:49:52.511Z,3.2
2023-01-23T18:55:00.168Z,3.2
2023-01-23T19:00:26.521Z,3.2
2023-01-23T19:05:12.839Z,3.2
2023-01-23T19:10:53.476Z,3.2
2023-01-23T19:16:19.909Z,3.2
2023-01-23T19:21:07.184Z,3.2
2023-01-23T19:26:37.731Z,3.2
2023-01-23T19:31:10.090Z,3.1
2023-01-23T19:36:16.319Z,3.1
2023-01-23T19:41:22.835Z,3.1
2023-01-23T19:46:29.464Z,3.1
2023-01-23T19:51:45.687Z,3.1
2023-01-23T19:56:52.144Z,3.1
2023-01-23T20:01:58.662Z,3.0
2023-01-23T20:07:04.983Z,3.0
2023-01-23T20:12:12.967Z,3.0
2023-01-23T20:22:25.976Z,3.0
2023-01-23T20:27:32.387Z,3.0
2023-01-23T20:32:38.900Z,3.0
2023-01-23T20:37:45.162Z,2.9
2023-01-23T20:42:51.600Z,3.0
2023-01-23T20:47:58.211Z,2.9
2023-01-23T20:53:04.631Z,2.9
2023-01-23T20:58:11.025Z,2.9
2023-01-23T21:03:17.472Z,2.9
2023-01-23T21:08:23.762Z,2.9
2023-01-23T21:13:50.167Z,2.9
2023-01-23T21:18:37.198Z,2.9
2023-01-23T21:23:43.673Z,2.9
2023-01-23T21:28:50.160Z,2.9
2023-01-23T21:33:56.682Z,2.9
2023-01-23T21:39:02.941Z,2.8
2023-01-23T21:44:09.331Z,2.8
2023-01-23T21:49:15.830Z,2.8
2023-01-23T21:59:28.608Z,2.8
2023-01-23T22:04:25.192Z,2.8
2023-01-23T22:09:31.476Z,2.8
2023-01-23T22:14:47.890Z,2.7
2023-01-23T22:19:54.380Z,2.7
2023-01-23T22:25:24.698Z,2.7
2023-01-23T22:30:07.039Z,2.7
2023-01-23T22:35:13.747Z,2.7
2023-01-23T22:40:10.000Z,2.7
2023-01-23T22:45:26.594Z,2.6
2023-01-23T22:50:23.071Z,2.6
2023-01-23T22:55:39.374Z,2.6
2023-01-23T23:00:45.823Z,2.6
2023-01-23T23:05:52.255Z,2.6
2023-01-23T23:10:58.551Z,2.6
2023-01-23T23:16:05.014Z,2.6
2023-01-23T23:21:11.541Z,2.6
2023-01-23T23:26:17.799Z,2.6
2023-01-23T23:31:24.300Z,2.5
2023-01-23T23:36:30.763Z,2.6
2023-01-23T23:41:56.088Z,2.6
2023-01-23T23:47:03.467Z,2.6
2023-01-23T23:51:49.927Z,2.5
2023-01-23T23:56:56.241Z,2.5
